createdAt,value
2023-04-25T00:00:18.441Z,97628.44
2023-04-25T00:02:45.585Z,97626.25
2023-04-25T00:05:13.537Z,97632.66
2023-04-25T00:07:43.022Z,97640.41
2023-04-25T00:10:12.096Z,97642.75
2023-04-25T00:12:40.104Z,97633.75
2023-04-25T00:15:07.857Z,97633.69
2023-04-25T00:17:36.000Z,97632.13
2023-04-25T00:20:06.283Z,97618.94
2023-04-25T00:22:35.733Z,97620.81
2023-04-25T00:25:04.444Z,97615.25
2023-04-25T00:27:31.457Z,97609.47
2023-04-25T00:29:58.725Z,97611.53
2023-04-25T00:32:26.416Z,97618.22
2023-04-25T00:34:53.538Z,97605.72
2023-04-25T00:37:21.145Z,97606.19
2023-04-25T00:39:48.208Z,97611.34
2023-04-25T00:42:15.476Z,97606.84
2023-04-25T00:44:43.866Z,97597.75
2023-04-25T00:47:12.456Z,97593.69
2023-04-25T00:49:39.436Z,97595.69
2023-04-25T00:52:06.897Z,97591.69
2023-04-25T00:54:33.940Z,97593.47
2023-04-25T00:57:02.071Z,97596.09
2023-04-25T00:59:30.873Z,97585.84
2023-04-25T01:01:59.060Z,97585.53
2023-04-25T01:04:28.752Z,97582.31
2023-04-25T01:06:56.966Z,97588.69
2023-04-25T01:09:24.930Z,97573.97
2023-04-25T01:11:52.538Z,97584.22
2023-04-25T01:14:19.713Z,97582.69
2023-04-25T01:16:47.736Z,97578.38
2023-04-25T01:19:19.174Z,97584.38
2023-04-25T01:21:47.582Z,97576.81
2023-04-25T01:24:15.738Z,97574.41
2023-04-25T01:26:50.631Z,97568.22
2023-04-25T01:29:21.995Z,97567.34
2023-04-25T01:31:49.584Z,97568.00
2023-04-25T01:34:16.624Z,97562.78
2023-04-25T01:36:44.227Z,97567.69
2023-04-25T01:39:12.036Z,97582.31
2023-04-25T01:41:39.527Z,97572.47
2023-04-25T01:44:06.968Z,97565.41
2023-04-25T01:46:35.419Z,97568.72
2023-04-25T01:49:03.094Z,97568.84
2023-04-25T01:51:31.474Z,97571.53
2023-04-25T01:54:00.861Z,97573.34
2023-04-25T01:56:38.064Z,97570.25
2023-04-25T01:59:07.229Z,97576.81
2023-04-25T02:01:51.871Z,97573.72
2023-04-25T02:04:26.601Z,97571.97
2023-04-25T02:06:53.865Z,97566.91
2023-04-25T02:09:21.828Z,97573.22
2023-04-25T02:11:54.621Z,97558.75
2023-04-25T02:14:34.442Z,97568.03
2023-04-25T02:17:24.252Z,97568.59
2023-04-25T02:19:52.312Z,97570.78
2023-04-25T02:22:19.916Z,97559.56
2023-04-25T02:24:47.687Z,97563.19
2023-04-25T02:27:15.166Z,97556.75
2023-04-25T02:29:42.268Z,97558.06
2023-04-25T02:32:11.856Z,97561.69
2023-04-25T02:34:39.249Z,97563.78
2023-04-25T02:37:06.631Z,97561.00
2023-04-25T02:39:33.591Z,97560.94
2023-04-25T02:42:02.013Z,97554.72
2023-04-25T02:44:30.898Z,97550.22
2023-04-25T02:46:57.975Z,97558.19
2023-04-25T02:49:24.971Z,97558.44
2023-04-25T02:51:53.470Z,97551.50
2023-04-25T02:54:20.940Z,97554.84
2023-04-25T02:56:49.401Z,97556.66
2023-04-25T02:59:23.590Z,97549.09
2023-04-25T03:01:50.793Z,97546.91
2023-04-25T03:04:20.068Z,97548.00
2023-04-25T03:06:48.432Z,97543.75
2023-04-25T03:09:15.922Z,97538.59
2023-04-25T03:11:43.277Z,97536.88
2023-04-25T03:14:10.987Z,97542.09
2023-04-25T03:16:38.497Z,97542.78
2023-04-25T03:19:06.425Z,97542.53
2023-04-25T03:21:35.123Z,97538.25
2023-04-25T03:24:04.704Z,97546.13
2023-04-25T03:26:32.532Z,97545.59
2023-04-25T03:29:00.841Z,97541.47
2023-04-25T03:31:28.797Z,97535.47
2023-04-25T03:33:56.094Z,97532.94
2023-04-25T03:36:24.691Z,97531.66
2023-04-25T03:38:51.725Z,97529.34
2023-04-25T03:41:21.193Z,97523.91
2023-04-25T03:43:53.402Z,97530.44
2023-04-25T03:46:21.041Z,97540.63
2023-04-25T03:48:48.959Z,97537.44
2023-04-25T03:51:22.055Z,97541.03
2023-04-25T03:53:49.854Z,97546.78
2023-04-25T03:56:21.152Z,97540.66
2023-04-25T03:58:53.849Z,97540.28
2023-04-25T04:01:24.139Z,97541.63
2023-04-25T04:03:51.708Z,97547.22
2023-04-25T04:06:21.721Z,97547.44
2023-04-25T04:08:53.744Z,97545.84
2023-04-25T04:11:21.585Z,97547.09
2023-04-25T04:13:49.068Z,97535.16
2023-04-25T04:16:16.398Z,97530.94
2023-04-25T04:18:44.060Z,97541.72
2023-04-25T04:21:11.131Z,97538.09
2023-04-25T04:23:41.935Z,97541.34
2023-04-25T04:26:11.166Z,97534.19
2023-04-25T04:29:01.313Z,97534.38
2023-04-25T04:31:53.711Z,97536.09
2023-04-25T04:34:21.105Z,97551.41
2023-04-25T04:36:48.605Z,97545.56
2023-04-25T04:39:16.279Z,97552.78
2023-04-25T04:41:55.163Z,97552.16
2023-04-25T04:44:45.699Z,97556.63
2023-04-25T04:47:26.963Z,97559.78
2023-04-25T04:50:13.224Z,97569.84
2023-04-25T04:53:03.043Z,97566.97
2023-04-25T04:55:47.267Z,97571.09
2023-04-25T04:58:32.257Z,97563.97
2023-04-25T05:01:25.141Z,97566.91
2023-04-25T05:04:19.661Z,97579.47
2023-04-25T05:06:58.962Z,97577.59
2023-04-25T05:09:51.498Z,97576.56
2023-04-25T05:12:41.361Z,97584.69
2023-04-25T05:15:11.780Z,97573.06
2023-04-25T05:17:54.198Z,97577.22
2023-04-25T05:20:41.612Z,97586.97
2023-04-25T05:23:09.022Z,97579.88
2023-04-25T05:25:51.176Z,97578.19
2023-04-25T05:28:31.665Z,97571.00
2023-04-25T05:31:15.489Z,97577.44
2023-04-25T05:33:51.643Z,97578.03
2023-04-25T05:36:22.475Z,97583.47
2023-04-25T05:38:49.620Z,97574.97
2023-04-25T05:41:22.310Z,97586.88
2023-04-25T05:43:57.935Z,97591.44
2023-04-25T05:46:41.461Z,97584.22
2023-04-25T05:49:28.786Z,97588.97
2023-04-25T05:51:58.371Z,97581.78
2023-04-25T05:54:31.158Z,97585.84
2023-04-25T05:56:58.982Z,97575.81
2023-04-25T05:59:26.865Z,97577.13
2023-04-25T06:01:57.142Z,97582.03
2023-04-25T06:04:24.879Z,97582.63
2023-04-25T06:06:52.185Z,97586.06
2023-04-25T06:09:19.242Z,97587.06
2023-04-25T06:11:46.386Z,97591.56
2023-04-25T06:14:13.382Z,97583.09
2023-04-25T06:16:46.210Z,97585.63
2023-04-25T06:19:13.245Z,97592.31
2023-04-25T06:21:41.099Z,97592.75
2023-04-25T06:24:09.067Z,97591.91
2023-04-25T06:26:36.174Z,97591.59
2023-04-25T06:29:04.226Z,97589.34
2023-04-25T06:31:33.567Z,97591.84
2023-04-25T06:34:01.575Z,97591.53
2023-04-25T06:36:30.067Z,97593.78
2023-04-25T06:39:03.165Z,97587.66
2023-04-25T06:41:30.304Z,97586.31
2023-04-25T06:44:02.114Z,97588.09
2023-04-25T06:46:55.760Z,97577.97
2023-04-25T06:49:23.593Z,97577.44
2023-04-25T06:51:50.680Z,97574.69
2023-04-25T06:54:18.649Z,97582.50
2023-04-25T06:56:56.001Z,97587.56
2023-04-25T06:59:23.365Z,97589.16
2023-04-25T07:01:51.452Z,97599.34
2023-04-25T07:04:22.585Z,97597.78
2023-04-25T07:06:53.352Z,97591.69
2023-04-25T07:09:26.776Z,97592.28
2023-04-25T07:11:54.287Z,97601.72
2023-04-25T07:14:21.572Z,97600.25
2023-04-25T07:16:49.163Z,97596.72
2023-04-25T07:19:16.551Z,97601.97
2023-04-25T07:21:44.640Z,97595.41
2023-04-25T07:24:12.821Z,97591.91
2023-04-25T07:26:45.036Z,97600.13
2023-04-25T07:29:40.938Z,97592.97
2023-04-25T07:32:08.806Z,97600.25
2023-04-25T07:34:38.331Z,97597.81
2023-04-25T07:37:06.407Z,97599.78
2023-04-25T07:39:42.784Z,97598.44
2023-04-25T07:42:10.411Z,97604.38
2023-04-25T07:44:41.232Z,97606.75
2023-04-25T07:47:11.296Z,97613.72
2023-04-25T07:49:38.674Z,97614.25
2023-04-25T07:52:09.548Z,97616.50
2023-04-25T07:54:38.967Z,97612.53
2023-04-25T07:57:15.056Z,97623.72
2023-04-25T07:59:42.695Z,97619.75
2023-04-25T08:02:10.119Z,97622.00
2023-04-25T08:04:38.021Z,97632.72
2023-04-25T08:07:08.780Z,97630.97
2023-04-25T08:09:42.789Z,97633.25
2023-04-25T08:12:21.059Z,97637.59
2023-04-25T08:14:53.086Z,97643.81
2023-04-25T08:17:21.055Z,97645.00
2023-04-25T08:19:48.403Z,97655.72
2023-04-25T08:22:24.212Z,97654.94
2023-04-25T08:24:55.938Z,97654.69
2023-04-25T08:27:23.520Z,97659.91
2023-04-25T08:29:52.056Z,97658.41
2023-04-25T08:32:20.418Z,97659.47
2023-04-25T08:35:01.643Z,97659.84
2023-04-25T08:37:29.124Z,97664.28
2023-04-25T08:40:01.924Z,97671.91
2023-04-25T08:42:50.527Z,97675.84
2023-04-25T08:45:17.677Z,97681.72
2023-04-25T08:47:46.716Z,97679.41
2023-04-25T08:50:14.636Z,97683.41
2023-04-25T08:52:50.509Z,97684.28
2023-04-25T08:55:17.955Z,97679.69
2023-04-25T08:57:45.814Z,97688.94
2023-04-25T09:00:14.284Z,97687.09
2023-04-25T09:02:45.115Z,97691.56
2023-04-25T09:05:15.269Z,97698.53
2023-04-25T09:07:43.685Z,97697.94
2023-04-25T09:10:11.751Z,97694.91
2023-04-25T09:12:39.875Z,97702.13
2023-04-25T09:15:12.383Z,97709.16
2023-04-25T09:17:59.116Z,97709.16
2023-04-25T09:20:33.353Z,97714.50
2023-04-25T09:23:04.485Z,97711.31
2023-04-25T09:25:40.191Z,97720.44
2023-04-25T09:28:09.834Z,97716.47
2023-04-25T09:30:37.962Z,97725.78
2023-04-25T09:33:11.900Z,97731.06
2023-04-25T09:35:45.004Z,97721.41
2023-04-25T09:38:23.269Z,97717.00
2023-04-25T09:41:12.745Z,97727.41
2023-04-25T09:43:47.937Z,97724.16
2023-04-25T09:46:16.625Z,97725.06
2023-04-25T09:48:51.436Z,97737.06
2023-04-25T09:51:28.571Z,97736.31
2023-04-25T09:53:59.105Z,97736.66
2023-04-25T09:56:49.350Z,97740.06
2023-04-25T09:59:16.853Z,97745.78
2023-04-25T10:01:44.948Z,97742.28
2023-04-25T10:04:27.981Z,97740.81
2023-04-25T10:07:06.773Z,97741.91
2023-04-25T10:09:36.155Z,97748.63
2023-04-25T10:12:04.605Z,97745.09
2023-04-25T10:14:33.185Z,97754.41
2023-04-25T10:17:01.090Z,97752.88
2023-04-25T10:19:29.921Z,97753.44
2023-04-25T10:22:11.040Z,97761.25
2023-04-25T10:24:39.706Z,97760.16
2023-04-25T10:27:07.444Z,97777.22
2023-04-25T10:29:34.977Z,97780.75
2023-04-25T10:32:02.957Z,97804.28
2023-04-25T10:34:49.545Z,97802.09
2023-04-25T10:37:16.947Z,97810.38
2023-04-25T10:39:44.778Z,97827.28
2023-04-25T10:42:12.938Z,97829.88
2023-04-25T10:44:40.970Z,97823.78
2023-04-25T10:47:10.641Z,97836.53
2023-04-25T10:49:44.338Z,97834.56
2023-04-25T10:52:17.871Z,97840.94
2023-04-25T10:55:05.144Z,97844.25
2023-04-25T10:57:43.000Z,97839.13
2023-04-25T11:00:18.076Z,97846.28
2023-04-25T11:02:54.528Z,97847.38
2023-04-25T11:05:31.428Z,97851.97
2023-04-25T11:08:07.980Z,97848.44
2023-04-25T11:10:39.073Z,97870.94
2023-04-25T11:13:06.710Z,97872.38
2023-04-25T11:15:33.764Z,97859.13
2023-04-25T11:18:02.102Z,97865.19
2023-04-25T11:20:30.016Z,97862.25
2023-04-25T11:23:01.069Z,97856.09
2023-04-25T11:25:28.847Z,97860.50
2023-04-25T11:27:59.092Z,97863.00
2023-04-25T11:30:27.960Z,97855.63
2023-04-25T11:32:55.893Z,97853.50
2023-04-25T11:35:24.358Z,97858.47
2023-04-25T11:37:51.514Z,97854.06
2023-04-25T11:40:19.002Z,97845.13
2023-04-25T11:42:47.961Z,97859.56
2023-04-25T11:45:16.130Z,97873.13
2023-04-25T11:47:43.255Z,97859.84
2023-04-25T11:50:11.152Z,97860.75
2023-04-25T11:52:43.683Z,97859.63
2023-04-25T11:55:21.464Z,97863.75
2023-04-25T11:57:53.763Z,97860.53
2023-04-25T12:00:23.614Z,97863.22
2023-04-25T12:02:56.931Z,97857.84
2023-04-25T12:05:35.301Z,97864.09
2023-04-25T12:08:16.147Z,97867.63
2023-04-25T12:10:46.342Z,97864.63
2023-04-25T12:13:25.050Z,97868.38
2023-04-25T12:15:53.084Z,97871.41
2023-04-25T12:18:22.237Z,97875.34
2023-04-25T12:20:49.647Z,97871.25
2023-04-25T12:23:16.834Z,97878.44
2023-04-25T12:25:46.157Z,97881.81
2023-04-25T12:28:15.460Z,97877.63
2023-04-25T12:31:06.748Z,97888.09
2023-04-25T12:33:38.458Z,97887.63
2023-04-25T12:36:10.203Z,97887.00
2023-04-25T12:38:42.722Z,97896.78
2023-04-25T12:41:10.421Z,97902.41
2023-04-25T12:43:37.876Z,97897.41
2023-04-25T12:46:05.404Z,97903.00
2023-04-25T12:48:32.544Z,97897.81
2023-04-25T12:50:59.849Z,97896.25
2023-04-25T12:53:27.356Z,97909.03
2023-04-25T12:58:22.363Z,97917.34
2023-04-25T13:00:57.047Z,97918.84
2023-04-25T13:07:52.873Z,97923.28
2023-04-25T13:10:20.443Z,97923.09
2023-04-25T13:12:47.955Z,97915.53
2023-04-25T13:15:16.624Z,97923.78
2023-04-25T13:17:44.399Z,97914.16
2023-04-25T13:20:11.780Z,97917.44
2023-04-25T13:22:40.356Z,97909.94
2023-04-25T13:25:09.179Z,97909.81
2023-04-25T13:27:37.908Z,97911.91
2023-04-25T13:30:08.269Z,97905.31
2023-04-25T13:32:39.463Z,97902.06
2023-04-25T13:35:11.126Z,97896.28
2023-04-25T13:37:39.600Z,97901.34
2023-04-25T13:40:11.165Z,97903.28
2023-04-25T13:42:39.547Z,97906.97
2023-04-25T13:45:08.033Z,97900.41
2023-04-25T13:47:36.347Z,97907.28
2023-04-25T13:50:04.921Z,97905.19
2023-04-25T13:52:32.212Z,97906.25
2023-04-25T13:54:59.985Z,97911.47
2023-04-25T13:57:26.981Z,97908.41
2023-04-25T13:59:55.021Z,97912.25
2023-04-25T14:02:22.452Z,97911.25
2023-04-25T14:04:49.862Z,97925.22
2023-04-25T14:07:17.312Z,97921.91
2023-04-25T14:09:44.888Z,97920.81
2023-04-25T14:12:12.261Z,97919.50
2023-04-25T14:14:39.866Z,97913.31
2023-04-25T14:17:07.850Z,97917.66
2023-04-25T14:19:35.480Z,97914.72
2023-04-25T14:22:02.529Z,97917.59
2023-04-25T14:24:29.950Z,97914.78
2023-04-25T14:26:57.643Z,97916.75
2023-04-25T14:29:24.693Z,97902.88
2023-04-25T14:31:51.770Z,97903.59
2023-04-25T14:34:19.283Z,97905.00
2023-04-25T14:36:46.681Z,97913.06
2023-04-25T14:39:15.756Z,97917.22
2023-04-25T14:41:42.738Z,97911.38
2023-04-25T14:44:10.119Z,97909.53
2023-04-25T14:46:38.546Z,97910.22
2023-04-25T14:49:06.417Z,97929.81
2023-04-25T14:51:34.300Z,97921.47
2023-04-25T14:54:02.079Z,97928.94
2023-04-25T14:56:29.441Z,97922.97
2023-04-25T14:58:57.601Z,97925.22
2023-04-25T15:01:25.154Z,97922.16
2023-04-25T15:03:53.010Z,97923.91
2023-04-25T15:06:20.842Z,97932.72
2023-04-25T15:08:48.260Z,97922.78
2023-04-25T15:11:15.750Z,97923.91
2023-04-25T15:13:43.191Z,97921.19
2023-04-25T15:16:11.293Z,97930.22
2023-04-25T15:18:38.690Z,97928.78
2023-04-25T15:21:06.574Z,97926.34
2023-04-25T15:23:33.950Z,97935.47
2023-04-25T15:26:01.366Z,97936.91
2023-04-25T15:28:28.730Z,97939.44
2023-04-25T15:30:56.620Z,97940.31
2023-04-25T15:33:24.163Z,97937.91
2023-04-25T15:35:51.763Z,97942.16
2023-04-25T15:38:21.296Z,97937.88
2023-04-25T15:40:48.759Z,97937.44
2023-04-25T15:43:17.284Z,97946.94
2023-04-25T15:45:45.756Z,97942.81
2023-04-25T15:48:17.453Z,97948.47
2023-04-25T15:50:45.001Z,97949.56
2023-04-25T15:53:12.406Z,97952.47
2023-04-25T15:55:46.589Z,97955.59
2023-04-25T15:58:14.034Z,97947.56
2023-04-25T16:00:41.626Z,97963.56
2023-04-25T16:03:09.277Z,97957.00
2023-04-25T16:05:37.556Z,97951.44
2023-04-25T16:08:05.408Z,97950.56
2023-04-25T16:10:33.279Z,97956.66
2023-04-25T16:13:00.953Z,97949.38
2023-04-25T16:15:28.340Z,97952.19
2023-04-25T16:17:55.935Z,97950.25
2023-04-25T16:20:23.402Z,97951.25
2023-04-25T16:22:51.163Z,97936.38
2023-04-25T16:25:18.697Z,97949.44
2023-04-25T16:27:46.252Z,97955.50
2023-04-25T16:30:14.285Z,97950.69
2023-04-25T16:32:44.729Z,97945.41
2023-04-25T16:35:12.706Z,97957.50
2023-04-25T16:37:40.387Z,97956.59
2023-04-25T16:40:11.073Z,97964.66
2023-04-25T16:42:38.579Z,97959.13
2023-04-25T16:45:06.468Z,97962.38
2023-04-25T16:47:33.646Z,97956.47
2023-04-25T16:50:01.715Z,97960.44
2023-04-25T16:52:29.175Z,97961.38
2023-04-25T16:54:56.457Z,97968.41
2023-04-25T16:57:23.889Z,97978.84
2023-04-25T16:59:52.071Z,97971.38
2023-04-25T17:02:19.569Z,97971.50
2023-04-25T17:04:47.642Z,97975.69
2023-04-25T17:07:15.988Z,97974.72
2023-04-25T17:09:43.484Z,97985.13
2023-04-25T17:12:10.898Z,97985.59
2023-04-25T17:14:39.078Z,97985.38
2023-04-25T17:17:07.082Z,97989.13
2023-04-25T17:19:34.589Z,98002.13
2023-04-25T17:22:02.084Z,98001.09
2023-04-25T17:24:29.515Z,97995.41
2023-04-25T17:26:57.339Z,97995.09
2023-04-25T17:29:24.882Z,98000.09
2023-04-25T17:31:53.664Z,98003.50
2023-04-25T17:34:21.545Z,98005.25
2023-04-25T17:36:48.668Z,98017.16
2023-04-25T17:39:17.383Z,98009.31
2023-04-25T17:41:45.662Z,98017.94
2023-04-25T17:44:13.471Z,98018.84
2023-04-25T17:46:41.596Z,98030.56
2023-04-25T17:49:09.152Z,98036.97
2023-04-25T17:51:37.066Z,98036.81
2023-04-25T17:54:04.507Z,98044.72
2023-04-25T17:56:31.932Z,98036.47
2023-04-25T17:58:59.553Z,98038.78
2023-04-25T18:01:27.090Z,98050.09
2023-04-25T18:03:57.917Z,98053.69
2023-04-25T18:06:28.285Z,98048.06
2023-04-25T18:08:57.174Z,98058.53
2023-04-25T18:11:24.781Z,98059.47
2023-04-25T18:13:52.768Z,98059.31
2023-04-25T18:16:20.021Z,98063.53
2023-04-25T18:18:53.392Z,98069.16
2023-04-25T18:21:21.612Z,98072.81
2023-04-25T18:23:49.046Z,98078.16
2023-04-25T18:26:16.482Z,98082.03
2023-04-25T18:28:43.971Z,98091.47
2023-04-25T18:31:11.943Z,98091.88
2023-04-25T18:33:39.071Z,98090.38
2023-04-25T18:36:07.096Z,98093.91
2023-04-25T18:38:35.960Z,98092.91
2023-04-25T18:41:27.147Z,98094.13
2023-04-25T18:44:01.137Z,98101.66
2023-04-25T18:46:29.471Z,98101.22
2023-04-25T18:48:57.524Z,98112.16
2023-04-25T18:51:31.982Z,98113.41
2023-04-25T18:53:59.593Z,98119.75
2023-04-25T18:56:28.085Z,98129.56
2023-04-25T18:58:56.456Z,98128.97
2023-04-25T19:01:25.485Z,98133.53
2023-04-25T19:03:57.200Z,98137.00
2023-04-25T19:06:28.033Z,98132.19
2023-04-25T19:08:56.450Z,98146.53
2023-04-25T19:11:24.468Z,98140.34
2023-04-25T19:13:52.452Z,98140.34
2023-04-25T19:16:20.128Z,98146.09
2023-04-25T19:19:27.524Z,98134.34
2023-04-25T19:22:08.687Z,98143.81
2023-04-25T19:29:37.024Z,98162.22
2023-04-25T19:32:20.361Z,98168.94
2023-04-25T19:35:17.303Z,98164.88
2023-04-25T19:37:48.036Z,98169.56
2023-04-25T19:40:16.462Z,98169.56
2023-04-25T19:42:44.507Z,98166.09
2023-04-25T19:45:12.594Z,98170.97
2023-04-25T19:47:40.583Z,98176.09
2023-04-25T19:50:09.427Z,98172.44
2023-04-25T19:52:37.535Z,98170.59
2023-04-25T19:55:06.299Z,98176.91
2023-04-25T19:57:38.029Z,98177.69
2023-04-25T20:00:14.411Z,98168.44
2023-04-25T20:02:50.798Z,98172.38
2023-04-25T20:05:18.644Z,98181.84
2023-04-25T20:07:46.114Z,98176.75
2023-04-25T20:10:15.617Z,98170.63
2023-04-25T20:12:44.153Z,98175.72
2023-04-25T20:15:14.415Z,98177.00
2023-04-25T20:17:42.707Z,98181.03
2023-04-25T20:20:11.973Z,98190.44
2023-04-25T20:22:40.558Z,98181.44
2023-04-25T20:25:09.953Z,98173.00
2023-04-25T20:27:38.233Z,98177.59
2023-04-25T20:30:09.736Z,98182.91
2023-04-25T20:32:37.341Z,98174.31
2023-04-25T20:35:07.797Z,98179.34
2023-04-25T20:37:35.963Z,98184.50
2023-04-25T20:40:09.875Z,98181.44
2023-04-25T20:42:38.166Z,98180.63
2023-04-25T20:45:13.102Z,98183.03
2023-04-25T20:47:41.428Z,98186.38
2023-04-25T20:50:14.967Z,98185.94
2023-04-25T20:52:43.222Z,98192.94
2023-04-25T20:55:11.850Z,98191.09
2023-04-25T20:57:38.964Z,98196.22
2023-04-25T21:00:16.802Z,98194.56
2023-04-25T21:02:46.003Z,98186.50
2023-04-25T21:05:13.958Z,98195.38
2023-04-25T21:07:41.756Z,98208.88
2023-04-25T21:10:09.592Z,98210.50
2023-04-25T21:12:37.058Z,98207.84
2023-04-25T21:15:05.075Z,98218.69
2023-04-25T21:17:32.690Z,98212.53
2023-04-25T21:20:00.329Z,98203.16
2023-04-25T21:22:27.730Z,98207.63
2023-04-25T21:24:57.199Z,98218.28
2023-04-25T21:27:24.684Z,98215.22
2023-04-25T21:29:52.125Z,98219.72
2023-04-25T21:32:21.924Z,98220.72
2023-04-25T21:34:49.418Z,98216.44
2023-04-25T21:37:16.849Z,98212.34
2023-04-25T21:39:44.652Z,98212.56
2023-04-25T21:42:12.070Z,98208.28
2023-04-25T21:44:40.102Z,98209.69
2023-04-25T21:47:07.598Z,98208.25
2023-04-25T21:49:35.089Z,98207.22
2023-04-25T21:52:05.035Z,98219.88
2023-04-25T21:54:32.489Z,98221.75
2023-04-25T21:56:59.983Z,98229.13
2023-04-25T21:59:27.537Z,98231.75
2023-04-25T22:01:55.228Z,98232.38
2023-04-25T22:04:23.079Z,98236.28
2023-04-25T22:06:50.746Z,98234.63
2023-04-25T22:09:18.266Z,98231.78
2023-04-25T22:11:46.965Z,98234.44
2023-04-25T22:14:15.172Z,98243.03
2023-04-25T22:16:43.506Z,98230.13
2023-04-25T22:19:11.538Z,98231.97
2023-04-25T22:21:39.040Z,98230.75
2023-04-25T22:24:06.706Z,98231.56
2023-04-25T22:26:34.756Z,98242.81
2023-04-25T22:29:02.783Z,98246.50
2023-04-25T22:31:30.438Z,98242.59
2023-04-25T22:33:58.054Z,98245.06
2023-04-25T22:36:25.760Z,98252.38
2023-04-25T22:38:53.949Z,98243.59
2023-04-25T22:41:23.638Z,98256.09
2023-04-25T22:43:51.116Z,98253.41
2023-04-25T22:46:19.917Z,98255.50
2023-04-25T22:48:48.255Z,98257.94
2023-04-25T22:51:15.833Z,98252.81
2023-04-25T22:53:45.284Z,98254.69
2023-04-25T22:56:13.231Z,98258.94
2023-04-25T22:58:40.269Z,98259.03
2023-04-25T23:01:08.706Z,98261.56
2023-04-25T23:03:36.412Z,98267.13
2023-04-25T23:06:04.151Z,98262.78
2023-04-25T23:08:31.659Z,98261.34
2023-04-25T23:10:59.462Z,98264.22
2023-04-25T23:13:26.959Z,98273.03
2023-04-25T23:15:54.375Z,98263.66
2023-04-25T23:18:22.186Z,98264.09
2023-04-25T23:20:49.589Z,98267.34
2023-04-25T23:23:17.115Z,98267.75
2023-04-25T23:25:46.014Z,98273.47
2023-04-25T23:28:13.454Z,98266.31
2023-04-25T23:30:41.323Z,98271.03
2023-04-25T23:33:08.966Z,98275.31
2023-04-25T23:35:37.211Z,98264.47
2023-04-25T23:38:04.955Z,98261.63
2023-04-25T23:40:32.737Z,98271.00
2023-04-25T23:43:02.283Z,98274.69
2023-04-25T23:45:30.417Z,98273.03
2023-04-25T23:48:03.995Z,98273.25
2023-04-25T23:50:31.953Z,98279.19
2023-04-25T23:52:59.359Z,98273.28
2023-04-25T23:55:27.227Z,98275.47
2023-04-25T23:57:55.109Z,98275.06
